首页
METAR-TAF:

METAR-TAF

机场 :

阿斯特拉罕, 俄罗斯

纬度: 46-17N, 经度: 048-00-23E, 海拔: 0米

当前天气观测

该预报发布于36分钟前的11:30 UTC
风速14节,风向
温度 34°C
湿度 23%
气压 1009 hPa
能见度10公里或以上
少量云层高于4000英尺

METAR: URWA 201130Z 09007MPS 9999 FEW040 34/10 Q1009 R09/010070 NOSIG RMK QFE758/1011

时间: 15:06 (12:06 UTC)

预报

该预报发布于51分钟前的11:15 UTC
预报有效从20日的 12点(UTC)到 20日的 21点(UTC)
风速6节,风向,有时为17节阵风
能见度10公里或以上
散云层高于4000英尺
几率 40% :
短暂存在
从 20日的 12点(UTC)到 20日的 16点(UTC)
风速10节,风向南转南东,有时为21节阵风
散云层高于3000英尺, 积雨云.
雷暴, 小雨

TAF: URWA 201115Z 2012/2021 08003G09MPS 9999 SCT040 PROB40 TEMPO 2012/2016 16005G11MPS -TSRA SCT030CB

超过4000个机场的气象观测和天气预报(METAR&TAF报告)。

可查询的气象台以黄色和红色小点在地图上表示。

将鼠标移到小点上方,可查看气象台名称。

然后点击查看天气观测和预报。

如需切换地图:点击带黑十字的绿色按钮放大地图;点击带横线的绿色按钮缩小地图;或者点击绿色箭头查看邻近地区的地图。


METAR-TAF: